Kuin — EA5984 — position and weather

sailwx.info

Track history (hours):
 
Tides and Currents Weather Stations Pressure Air Temp Water Temp Dewpoint Dewpoint Depression Visibility Wind Speed Wind Dir Waves Ship Positions

Kuin

Last reported at 2018-Feb-03 10:22 UTC. Time now 2018-Feb-19 02:10 UTC.
Position N 43°20' W 003°01'.
Warning: this ship's position is 15 days out of date.

Length 12 m.

Type: Sailing vessel. MMSI: 224120260.

Date/timePositionNaut miles runAvg speedWind from/ knotsBaromVisibWave heightAir tempDewpointWater temp
2018-Feb-03 10:22N 43°20' W 003°01'  
2018-Jan-28 13:58N 43°27' W 002°44'2 4.2
2018-Jan-28 13:31N 43°25' W 002°43'0 0.2
2018-Jan-28 12:58N 43°25' W 002°43'0 0.0
2018-Jan-28 12:28N 43°25' W 002°43'2 3.7
2018-Jan-28 12:00N 43°26' W 002°41'4 5.7
2018-Jan-28 11:23N 43°25' W 002°37'16 1.1
2018-Jan-27 20:56N 43°25' W 002°14'2 5.2
2018-Jan-27 20:28N 43°25' W 002°18'3 5.3
2018-Jan-27 19:59N 43°25' W 002°21'2 5.2
2018-Jan-27 19:30N 43°24' W 002°25'3 5.7
2018-Jan-27 19:00N 43°24' W 002°29'3 6.2
2018-Jan-27 18:30N 43°24' W 002°33'4 1.9
2018-Jan-27 16:14N 43°25' W 002°39'1 5.9
2018-Jan-27 16:00N 43°26' W 002°40'3 5.9
2018-Jan-27 15:30N 43°27' W 002°44'14 4.9
2018-Jan-27 12:37N 43°24' W 003°03'  
Track history (hours):
 
Tides and Currents Weather Stations Pressure Air Temp Water Temp Dewpoint Dewpoint Depression Visibility Wind Speed Wind Dir Waves Ship Positions

Kuin

Last reported at 2018-Feb-03 10:22 UTC. Time now 2018-Feb-19 02:10 UTC.
Position N 43°20' W 003°01'.
Warning: this ship's position is 15 days out of date.

Length 12 m.

Type: Sailing vessel. MMSI: 224120260.

Date/timePositionNaut miles runAvg speedWind from/ knotsBaromVisibWave heightAir tempDewpointWater temp
2018-Feb-03 10:22N 43°20' W 003°01'  
2018-Jan-28 13:58N 43°27' W 002°44'2 4.2
2018-Jan-28 13:31N 43°25' W 002°43'0 0.2
2018-Jan-28 12:58N 43°25' W 002°43'0 0.0
2018-Jan-28 12:28N 43°25' W 002°43'2 3.7
2018-Jan-28 12:00N 43°26' W 002°41'4 5.7
2018-Jan-28 11:23N 43°25' W 002°37'16 1.1
2018-Jan-27 20:56N 43°25' W 002°14'2 5.2
2018-Jan-27 20:28N 43°25' W 002°18'3 5.3
2018-Jan-27 19:59N 43°25' W 002°21'2 5.2
2018-Jan-27 19:30N 43°24' W 002°25'3 5.7
2018-Jan-27 19:00N 43°24' W 002°29'3 6.2
2018-Jan-27 18:30N 43°24' W 002°33'4 1.9
2018-Jan-27 16:14N 43°25' W 002°39'1 5.9
2018-Jan-27 16:00N 43°26' W 002°40'3 5.9
2018-Jan-27 15:30N 43°27' W 002°44'14 4.9
2018-Jan-27 12:37N 43°24' W 003°03'  

Dump ship's entire track history